createdAt,value
2022-08-11T00:01:26.855Z,18.20
2022-08-11T00:04:04.094Z,18.10
2022-08-11T00:06:35.345Z,18.20
2022-08-11T00:09:05.532Z,18.00
2022-08-11T00:11:49.840Z,18.10
2022-08-11T00:14:20.898Z,18.10
2022-08-11T00:17:15.053Z,18.10
2022-08-11T00:20:14.946Z,18.00
2022-08-11T00:22:35.715Z,17.90
2022-08-11T00:25:14.209Z,17.90
2022-08-11T00:27:42.186Z,17.90
2022-08-11T00:30:11.235Z,17.90
2022-08-11T00:32:41.383Z,17.80
2022-08-11T00:35:51.967Z,17.70
2022-08-11T00:38:01.194Z,17.80
2022-08-11T00:43:43.497Z,17.60
2022-08-11T00:46:18.709Z,17.30
2022-08-11T00:48:56.629Z,17.60
2022-08-11T00:52:05.673Z,17.60
2022-08-11T00:54:54.267Z,17.80
2022-08-11T00:57:54.875Z,17.60
2022-08-11T01:00:24.095Z,17.60
2022-08-11T01:02:56.689Z,17.20
2022-08-11T01:08:01.542Z,17.70
2022-08-11T01:10:42.294Z,17.60
2022-08-11T01:13:33.590Z,17.20
2022-08-11T01:16:24.801Z,17.40
2022-08-11T01:24:46.253Z,17.60
2022-08-11T01:30:23.523Z,16.90
2022-08-11T01:33:28.369Z,17.20
2022-08-11T01:36:20.764Z,16.90
2022-08-11T01:39:26.597Z,17.10
2022-08-11T01:42:24.116Z,17.50
2022-08-11T01:44:59.694Z,17.20
2022-08-11T01:47:54.102Z,17.00
2022-08-11T01:53:19.933Z,17.00
2022-08-11T01:56:01.188Z,17.00
2022-08-11T02:01:45.070Z,17.00
2022-08-11T02:04:34.822Z,16.60
2022-08-11T02:07:13.593Z,16.80
2022-08-11T02:09:55.622Z,16.80
2022-08-11T02:15:12.480Z,16.80
2022-08-11T02:17:54.788Z,16.70
2022-08-11T02:20:55.876Z,16.70
2022-08-11T02:26:36.573Z,16.70
2022-08-11T02:29:25.298Z,16.90
2022-08-11T02:32:47.105Z,17.00
2022-08-11T02:40:49.572Z,16.80
2022-08-11T02:43:30.014Z,16.60
2022-08-11T02:46:18.702Z,16.80
2022-08-11T02:49:18.142Z,16.60
2022-08-11T02:52:24.139Z,16.50
2022-08-11T02:57:29.060Z,16.50
2022-08-11T03:00:14.994Z,16.40
2022-08-11T03:03:00.815Z,16.50
2022-08-11T03:05:53.853Z,16.50
2022-08-11T03:11:37.169Z,16.50
2022-08-11T03:22:12.963Z,16.40
2022-08-11T03:25:02.972Z,16.30
2022-08-11T03:30:17.873Z,16.60
2022-08-11T03:33:34.426Z,16.20
2022-08-11T03:36:13.199Z,16.00
2022-08-11T03:38:56.984Z,16.60
2022-08-11T03:42:03.452Z,16.20
2022-08-11T03:47:30.133Z,15.70
2022-08-11T03:52:52.366Z,16.10
2022-08-11T03:56:00.394Z,16.10
2022-08-11T03:58:41.920Z,15.70
2022-08-11T04:04:17.181Z,16.10
2022-08-11T04:07:27.811Z,16.00
2022-08-11T04:10:32.975Z,16.30
2022-08-11T04:13:37.746Z,16.00
2022-08-11T04:18:54.571Z,15.90
2022-08-11T04:21:37.129Z,15.90
2022-08-11T04:27:39.292Z,15.90
2022-08-11T04:30:29.116Z,15.90
2022-08-11T04:32:59.826Z,15.90
2022-08-11T04:40:50.828Z,15.80
2022-08-11T04:44:05.491Z,15.90
2022-08-11T04:46:51.650Z,15.80
2022-08-11T05:01:39.318Z,15.50
2022-08-11T05:04:06.183Z,15.90
2022-08-11T05:07:14.269Z,15.90
2022-08-11T05:12:27.243Z,16.30
2022-08-11T05:15:14.547Z,16.10
2022-08-11T05:21:05.316Z,16.20
2022-08-11T05:23:54.038Z,16.20
2022-08-11T05:26:46.017Z,16.20
2022-08-11T05:29:54.664Z,15.20
2022-08-11T05:32:42.963Z,16.30
2022-08-11T05:38:18.409Z,16.30
2022-08-11T05:41:08.847Z,16.30
2022-08-11T05:44:20.074Z,16.40
2022-08-11T05:47:08.106Z,16.40
2022-08-11T05:49:55.420Z,16.50
2022-08-11T05:52:55.450Z,16.50
2022-08-11T05:56:02.401Z,16.60
2022-08-11T05:58:42.646Z,16.60
2022-08-11T06:01:13.155Z,16.70
2022-08-11T06:04:02.059Z,16.70
2022-08-11T06:06:30.074Z,16.70
2022-08-11T06:08:58.681Z,16.80
2022-08-11T06:11:43.847Z,16.80
2022-08-11T06:14:13.427Z,17.00
2022-08-11T06:16:42.748Z,17.00
2022-08-11T06:21:38.514Z,17.00
2022-08-11T06:24:12.515Z,17.00
2022-08-11T06:27:10.714Z,17.10
2022-08-11T06:29:47.658Z,17.20
2022-08-11T06:32:16.220Z,17.10
2022-08-11T06:35:04.048Z,17.20
2022-08-11T06:37:43.503Z,17.30
2022-08-11T06:40:31.539Z,17.40
2022-08-11T06:43:18.935Z,17.40
2022-08-11T06:46:03.332Z,17.00
2022-08-11T06:48:33.417Z,17.00
2022-08-11T06:51:13.997Z,17.60
2022-08-11T06:54:03.721Z,17.30
2022-08-11T07:00:03.801Z,17.60
2022-08-11T07:02:38.224Z,17.60
2022-08-11T07:05:11.710Z,17.70
2022-08-11T07:08:34.623Z,17.60
2022-08-11T07:11:20.108Z,17.70
2022-08-11T07:14:08.654Z,17.70
2022-08-11T07:16:40.563Z,17.80
2022-08-11T07:19:27.959Z,17.80
2022-08-11T07:22:15.403Z,17.90
2022-08-11T07:25:15.581Z,18.00
2022-08-11T07:28:14.882Z,18.30
2022-08-11T07:30:43.475Z,18.00
2022-08-11T07:33:19.039Z,18.00
2022-08-11T07:36:03.538Z,18.10
2022-08-11T07:38:47.653Z,18.10
2022-08-11T07:41:16.274Z,18.20
2022-08-11T07:43:49.105Z,18.20
2022-08-11T07:46:37.314Z,18.30
2022-08-11T07:49:26.096Z,18.20
2022-08-11T07:52:12.846Z,18.30
2022-08-11T07:54:41.334Z,18.30
2022-08-11T07:57:57.023Z,18.40
2022-08-11T08:00:37.824Z,18.40
2022-08-11T08:03:26.322Z,18.40
2022-08-11T08:12:05.551Z,18.50
2022-08-11T08:14:52.605Z,18.60
2022-08-11T08:17:40.719Z,18.70
2022-08-11T08:20:12.345Z,18.70
2022-08-11T08:25:12.117Z,18.80
2022-08-11T08:27:39.780Z,18.80
2022-08-11T08:30:26.100Z,18.70
2022-08-11T08:32:57.678Z,18.80
2022-08-11T08:37:59.791Z,19.00
2022-08-11T08:43:02.726Z,19.10
2022-08-11T08:48:17.032Z,19.50
2022-08-11T08:51:08.573Z,19.10
2022-08-11T08:53:39.103Z,19.10
2022-08-11T08:56:25.161Z,19.20
2022-08-11T09:04:05.305Z,19.30
2022-08-11T09:06:40.037Z,19.40
2022-08-11T09:09:12.232Z,19.40
2022-08-11T09:11:50.665Z,19.40
2022-08-11T09:14:23.315Z,19.40
2022-08-11T09:19:20.218Z,19.50
2022-08-11T09:22:10.569Z,19.50
2022-08-11T09:24:58.266Z,19.50
2022-08-11T09:27:26.684Z,19.50
2022-08-11T09:29:54.692Z,19.50
2022-08-11T09:32:23.465Z,19.70
2022-08-11T09:34:52.112Z,20.00
2022-08-11T09:37:55.372Z,19.80
2022-08-11T09:40:31.192Z,19.90
2022-08-11T09:43:18.295Z,19.90
2022-08-11T09:45:51.773Z,19.90
2022-08-11T09:48:20.670Z,19.90
2022-08-11T09:50:51.406Z,20.10
2022-08-11T09:53:35.112Z,20.10
2022-08-11T09:56:25.207Z,20.00
2022-08-11T10:01:29.199Z,20.00
2022-08-11T10:04:09.944Z,20.30
2022-08-11T10:06:58.055Z,20.20
2022-08-11T10:09:26.187Z,20.00
2022-08-11T10:11:58.356Z,20.10
2022-08-11T10:14:46.177Z,20.20
2022-08-11T10:17:14.920Z,20.20
2022-08-11T10:19:45.352Z,20.40
2022-08-11T10:28:28.982Z,20.50
2022-08-11T10:31:13.958Z,20.30
2022-08-11T10:34:00.414Z,20.20
2022-08-11T10:36:43.085Z,20.10
2022-08-11T10:39:17.147Z,20.10
2022-08-11T10:42:08.527Z,20.10
2022-08-11T10:44:45.683Z,20.10
2022-08-11T10:47:33.514Z,20.10
2022-08-11T10:50:26.292Z,20.10
2022-08-11T10:56:01.141Z,20.20
2022-08-11T10:58:47.495Z,20.30
2022-08-11T11:01:24.409Z,20.40
2022-08-11T11:03:54.690Z,20.40
2022-08-11T11:06:56.046Z,20.40
2022-08-11T11:09:32.443Z,20.50
2022-08-11T11:12:48.409Z,20.40
2022-08-11T11:15:38.229Z,20.40
2022-08-11T11:18:11.428Z,20.30
2022-08-11T11:20:49.665Z,20.20
2022-08-11T11:23:25.480Z,20.70
2022-08-11T11:26:10.877Z,20.60
2022-08-11T11:31:22.421Z,20.00
2022-08-11T11:34:12.217Z,20.60
2022-08-11T11:36:47.957Z,20.30
2022-08-11T11:39:21.976Z,20.80
2022-08-11T11:41:51.998Z,20.10
2022-08-11T11:44:22.788Z,20.30
2022-08-11T11:46:51.582Z,20.50
2022-08-11T11:51:53.895Z,20.70
2022-08-11T11:54:25.164Z,21.00
2022-08-11T11:56:54.820Z,20.60
2022-08-11T11:59:41.970Z,20.60
2022-08-11T12:02:12.444Z,20.60
2022-08-11T12:04:45.718Z,20.60
2022-08-11T12:07:31.333Z,20.60
2022-08-11T12:09:59.273Z,20.50
2022-08-11T12:15:13.511Z,20.50
2022-08-11T12:20:33.847Z,20.50
2022-08-11T12:23:16.276Z,20.50
2022-08-11T12:26:25.899Z,20.40
2022-08-11T12:31:26.017Z,20.80
2022-08-11T12:38:51.775Z,20.30
2022-08-11T12:41:39.571Z,20.70
2022-08-11T12:44:29.733Z,20.70
2022-08-11T12:47:01.398Z,20.70
2022-08-11T12:49:50.822Z,21.10
2022-08-11T12:52:22.825Z,21.30
2022-08-11T12:55:00.631Z,21.00
2022-08-11T13:00:34.165Z,21.30
2022-08-11T13:03:20.905Z,21.30
2022-08-11T13:05:49.801Z,21.60
2022-08-11T13:08:18.041Z,21.20
2022-08-11T13:11:05.063Z,20.90
2022-08-11T13:13:54.542Z,20.60
2022-08-11T13:16:22.549Z,21.10
2022-08-11T13:21:21.523Z,20.70
2022-08-11T13:23:59.499Z,20.90
2022-08-11T13:26:43.195Z,20.80
2022-08-11T13:29:24.358Z,21.10
2022-08-11T13:31:54.715Z,20.30
2022-08-11T13:34:24.786Z,20.20
2022-08-11T13:36:53.334Z,20.70
2022-08-11T13:39:24.377Z,21.70
2022-08-11T13:41:57.345Z,22.70
2022-08-11T13:44:27.542Z,22.40
2022-08-11T13:46:57.836Z,22.30
2022-08-11T13:49:25.994Z,22.30
2022-08-11T13:51:54.254Z,22.40
2022-08-11T13:54:31.163Z,22.00
2022-08-11T13:57:03.144Z,21.80
2022-08-11T13:59:45.323Z,21.80
2022-08-11T14:02:29.511Z,22.30
2022-08-11T14:05:01.583Z,21.40
2022-08-11T14:07:36.871Z,21.60
2022-08-11T14:10:06.202Z,21.40
2022-08-11T14:12:54.482Z,21.10
2022-08-11T14:15:28.872Z,21.50
2022-08-11T14:18:05.388Z,21.60
2022-08-11T14:20:53.491Z,21.90
2022-08-11T14:23:32.969Z,21.90
2022-08-11T14:28:47.750Z,21.80
2022-08-11T14:31:16.103Z,21.50
2022-08-11T14:34:00.789Z,22.10
2022-08-11T14:36:34.597Z,22.00
2022-08-11T14:39:13.110Z,21.90
2022-08-11T14:42:13.405Z,21.60
2022-08-11T14:45:07.009Z,22.30
2022-08-11T14:47:36.467Z,21.80
2022-08-11T14:50:11.465Z,21.90
2022-08-11T14:52:44.878Z,21.50
2022-08-11T14:55:32.469Z,21.70
2022-08-11T14:58:01.822Z,21.40
2022-08-11T15:03:13.687Z,21.70
2022-08-11T15:08:56.913Z,21.30
2022-08-11T15:11:50.303Z,21.20
2022-08-11T15:14:38.737Z,21.50
2022-08-11T15:17:07.963Z,21.50
2022-08-11T15:19:37.540Z,21.40
2022-08-11T15:22:30.290Z,21.20
2022-08-11T15:25:00.181Z,21.40
2022-08-11T15:27:48.882Z,21.50
2022-08-11T15:30:35.438Z,21.40
2022-08-11T15:33:25.888Z,21.70
2022-08-11T15:36:13.064Z,21.40
2022-08-11T15:38:58.417Z,21.30
2022-08-11T15:41:59.034Z,21.30
2022-08-11T15:45:10.009Z,21.30
2022-08-11T15:47:42.593Z,21.20
2022-08-11T15:50:15.357Z,21.00
2022-08-11T15:52:49.625Z,21.20
2022-08-11T15:55:18.106Z,21.20
2022-08-11T15:58:07.996Z,21.60
2022-08-11T16:01:02.064Z,21.60
2022-08-11T16:04:07.796Z,21.60
2022-08-11T16:06:49.323Z,21.60
2022-08-11T16:09:25.140Z,21.40
2022-08-11T16:11:57.108Z,21.40
2022-08-11T16:14:43.685Z,21.40
2022-08-11T16:17:12.640Z,21.40
2022-08-11T16:19:42.265Z,21.60
2022-08-11T16:22:12.816Z,21.60
2022-08-11T16:27:05.149Z,21.70
2022-08-11T16:27:35.369Z,21.60
2022-08-11T16:35:28.342Z,21.50
2022-08-11T16:38:15.981Z,21.50
2022-08-11T16:40:44.034Z,21.40
2022-08-11T16:43:35.313Z,21.70
2022-08-11T16:46:23.655Z,21.30
2022-08-11T16:48:53.855Z,21.60
2022-08-11T16:51:21.923Z,21.40
2022-08-11T16:54:03.795Z,21.10
2022-08-11T16:56:39.495Z,21.30
2022-08-11T16:59:15.188Z,21.20
2022-08-11T17:01:53.244Z,21.20
2022-08-11T17:05:09.822Z,21.20
2022-08-11T17:08:01.309Z,21.20
2022-08-11T17:11:13.846Z,21.20
2022-08-11T17:13:44.761Z,21.20
2022-08-11T17:16:13.213Z,20.80
2022-08-11T17:21:30.032Z,21.20
2022-08-11T17:24:09.545Z,21.20
2022-08-11T17:26:55.699Z,21.20
2022-08-11T17:29:54.391Z,20.80
2022-08-11T17:32:56.830Z,21.10
2022-08-11T17:35:32.583Z,21.00
2022-08-11T17:40:37.142Z,21.30
2022-08-11T17:43:26.190Z,21.10
2022-08-11T17:46:14.215Z,21.50
2022-08-11T17:48:47.723Z,21.00
2022-08-11T17:51:38.686Z,20.80
2022-08-11T17:54:26.266Z,21.10
2022-08-11T17:57:20.275Z,21.20
2022-08-11T17:59:53.686Z,21.20
2022-08-11T18:02:45.550Z,21.10
2022-08-11T18:05:13.811Z,21.10
2022-08-11T18:10:50.958Z,21.20
2022-08-11T18:13:38.752Z,21.00
2022-08-11T18:16:24.824Z,21.60
2022-08-11T18:22:13.083Z,21.10
2022-08-11T18:25:07.472Z,21.20
2022-08-11T18:27:57.298Z,21.20
2022-08-11T18:30:44.479Z,21.20
2022-08-11T18:34:04.011Z,21.00
2022-08-11T18:36:46.669Z,21.20
2022-08-11T18:39:33.313Z,20.80
2022-08-11T18:42:29.157Z,21.50
2022-08-11T18:45:19.993Z,21.20
2022-08-11T18:48:09.130Z,21.20
2022-08-11T18:51:05.772Z,21.10
2022-08-11T18:54:06.139Z,21.20
2022-08-11T18:56:52.923Z,21.20
2022-08-11T18:59:40.550Z,21.20
2022-08-11T19:02:27.940Z,21.50
2022-08-11T19:05:16.770Z,21.30
2022-08-11T19:08:07.651Z,21.10
2022-08-11T19:13:43.626Z,21.40
2022-08-11T19:19:17.664Z,21.10
2022-08-11T19:22:03.839Z,21.40
2022-08-11T19:24:50.526Z,21.10
2022-08-11T19:33:09.425Z,21.00
2022-08-11T19:35:56.020Z,21.00
2022-08-11T19:44:35.575Z,20.90
2022-08-11T19:47:21.763Z,21.20
2022-08-11T19:50:08.910Z,20.90
2022-08-11T19:52:57.757Z,20.80
2022-08-11T19:55:45.422Z,20.80
2022-08-11T19:58:33.199Z,20.80
2022-08-11T20:01:18.826Z,20.90
2022-08-11T20:04:04.498Z,20.50
2022-08-11T20:10:05.453Z,20.80
2022-08-11T20:12:47.331Z,20.80
2022-08-11T20:15:35.759Z,20.80
2022-08-11T20:18:24.583Z,20.90
2022-08-11T20:21:22.756Z,20.80
2022-08-11T20:24:12.589Z,20.40
2022-08-11T20:26:58.344Z,21.10
2022-08-11T20:29:48.480Z,20.60
2022-08-11T20:32:34.903Z,20.70
2022-08-11T20:35:23.551Z,20.70
2022-08-11T20:38:13.853Z,20.30
2022-08-11T20:44:05.831Z,20.60
2022-08-11T20:46:54.557Z,20.50
2022-08-11T20:52:41.796Z,20.50
2022-08-11T20:55:51.205Z,20.50
2022-08-11T21:01:45.416Z,20.50
2022-08-11T21:07:41.195Z,20.40
2022-08-11T21:10:30.121Z,20.30
2022-08-11T21:13:26.223Z,20.20
2022-08-11T21:16:26.507Z,20.40
2022-08-11T21:20:01.303Z,20.30
2022-08-11T21:26:02.179Z,19.80
2022-08-11T21:28:48.748Z,20.20
2022-08-11T21:34:22.100Z,20.50
2022-08-11T21:37:09.333Z,20.00
2022-08-11T21:39:56.212Z,20.00
2022-08-11T21:42:44.399Z,20.00
2022-08-11T21:45:32.105Z,20.00
2022-08-11T21:48:19.444Z,19.90
2022-08-11T21:53:52.766Z,19.80
2022-08-11T21:56:40.415Z,19.50
2022-08-11T22:05:00.319Z,19.70
2022-08-11T22:13:31.517Z,19.60
2022-08-11T22:22:03.007Z,19.50
2022-08-11T22:24:52.751Z,19.50
2022-08-11T22:27:39.848Z,19.50
2022-08-11T22:30:27.313Z,19.50
2022-08-11T22:36:03.047Z,19.40
2022-08-11T22:38:51.832Z,19.40
2022-08-11T22:47:12.308Z,19.40
2022-08-11T22:52:46.950Z,19.30
2022-08-11T22:55:33.984Z,19.20
2022-08-11T22:58:21.178Z,19.30
2022-08-11T23:01:07.857Z,19.20
2022-08-11T23:03:54.271Z,19.20
2022-08-11T23:09:27.322Z,19.10
2022-08-11T23:15:00.315Z,19.10
2022-08-11T23:17:46.961Z,19.00
2022-08-11T23:29:16.342Z,19.00
2022-08-11T23:32:04.459Z,19.00
2022-08-11T23:35:03.813Z,18.90
2022-08-11T23:48:59.160Z,18.70
2022-08-11T23:51:46.788Z,18.70
2022-08-11T23:57:23.849Z,18.90
